Time;durP1;ratioP1;P1;durP2;ratioP2;P2;SDS_P1;SDS_P2;PMS_P1;PMS_P2;Temp;Humidity;BMP_temperature;BMP_pressure;BME280_temperature;BME280_humidity;BME280_pressure;Samples;Min_cycle;Max_cycle;Signal;HPM_P1;HPM_P2
2023/02/22 00:01:46;;;;;;;77.00;24.60;;;;;;;5.56;100.00;97942.54;106240;1254;61256;-77
2023/02/22 00:04:13;;;;;;;101.00;32.60;;;;;;;5.53;100.00;97942.05;106406;1254;61376;-77
2023/02/22 00:06:39;;;;;;;103.70;34.20;;;;;;;5.50;100.00;97944.29;107121;1253;179630;-79
2023/02/22 00:09:08;;;;;;;102.00;35.90;;;;;;;5.49;100.00;97947.56;107181;1254;61272;-79
2023/02/22 00:11:34;;;;;;;83.00;26.80;;;;;;;5.49;100.00;97949.33;106587;1254;71073;-79
2023/02/22 00:14:01;;;;;;;69.20;25.20;;;;;;;5.47;100.00;97945.14;106411;1258;61310;-77
2023/02/22 00:16:29;;;;;;;52.40;20.80;;;;;;;5.45;100.00;97942.05;106592;1254;61609;-77
2023/02/22 00:18:56;;;;;;;43.20;14.20;;;;;;;5.46;100.00;97949.16;107397;1254;60206;-77
2023/02/22 00:21:22;;;;;;;32.70;12.70;;;;;;;5.49;100.00;97949.23;106355;1257;74573;-77
2023/02/22 00:23:48;;;;;;;25.10;8.30;;;;;;;5.52;100.00;97953.71;106390;1259;61320;-77
2023/02/22 00:26:17;;;;;;;22.10;7.60;;;;;;;5.54;100.00;97955.13;106763;1254;61105;-77
2023/02/22 00:28:50;;;;;;;20.20;8.40;;;;;;;5.56;100.00;97955.07;107278;1254;61266;-77
2023/02/22 00:31:16;;;;;;;25.40;8.30;;;;;;;5.57;100.00;97961.54;106046;1254;61346;-78
2023/02/22 00:33:43;;;;;;;24.60;7.70;;;;;;;5.57;100.00;97963.48;106331;1254;61145;-78
2023/02/22 00:36:10;;;;;;;18.70;8.40;;;;;;;5.56;100.00;97966.52;106992;1254;71001;-78
2023/02/22 00:38:37;;;;;;;28.50;6.80;;;;;;;5.54;100.00;97970.07;107446;1254;71442;-78
2023/02/22 00:41:03;;;;;;;20.30;6.20;;;;;;;5.54;100.00;97967.71;106069;1255;61225;-78
2023/02/22 00:43:30;;;;;;;26.20;7.20;;;;;;;5.57;100.00;97971.42;106261;1257;61163;-77
2023/02/22 00:45:56;;;;;;;22.40;5.60;;;;;;;5.58;100.00;97970.80;106452;1254;61253;-78
2023/02/22 00:48:23;;;;;;;13.20;5.80;;;;;;;5.59;100.00;97972.36;108384;1254;71250;-78
2023/02/22 00:50:53;;;;;;;18.50;6.20;;;;;;;5.60;100.00;97968.17;106313;1254;71887;-77
2023/02/22 00:53:21;;;;;;;26.50;7.40;;;;;;;5.60;100.00;97972.42;106085;1254;61221;-78
2023/02/22 00:55:48;;;;;;;25.50;7.70;;;;;;;5.60;100.00;97969.63;106077;1254;61272;-77
2023/02/22 00:58:14;;;;;;;23.00;6.50;;;;;;;5.60;100.00;97968.92;108218;1257;74582;-77
2023/02/22 01:00:41;;;;;;;20.90;6.30;;;;;;;5.58;100.00;97971.23;106357;1254;61349;-77
2023/02/22 01:03:09;;;;;;;17.30;6.20;;;;;;;5.54;100.00;97972.70;106254;1254;71439;-77
2023/02/22 01:05:37;;;;;;;17.90;7.30;;;;;;;5.50;100.00;97973.53;106372;1254;61222;-77
2023/02/22 01:08:07;;;;;;;17.10;6.00;;;;;;;5.47;100.00;97976.02;108450;1254;58915;-77
2023/02/22 01:10:34;;;;;;;21.30;6.30;;;;;;;5.49;100.00;97969.91;106398;1254;74047;-78
2023/02/22 01:13:03;;;;;;;16.40;7.70;;;;;;;5.49;100.00;97972.02;106133;1254;71109;-78
2023/02/22 01:15:30;;;;;;;17.40;6.60;;;;;;;5.46;100.00;97971.33;106201;1258;71545;-77
2023/02/22 01:17:57;;;;;;;16.70;6.30;;;;;;;5.44;100.00;97968.38;108554;1254;61409;-77
2023/02/22 01:20:27;;;;;;;18.70;6.10;;;;;;;5.42;100.00;97966.91;106152;1254;61202;-78
2023/02/22 01:22:55;;;;;;;20.70;7.00;;;;;;;5.40;100.00;97970.59;106198;1259;74493;-77
2023/02/22 01:25:23;;;;;;;25.40;7.20;;;;;;;5.38;100.00;97970.19;106517;1254;69315;-78
2023/02/22 01:27:50;;;;;;;36.00;15.20;;;;;;;5.30;100.00;97971.14;108342;1254;71457;-78
2023/02/22 01:30:21;;;;;;;27.30;13.60;;;;;;;5.25;100.00;97969.73;106099;1254;61251;-77
2023/02/22 01:32:49;;;;;;;23.90;11.60;;;;;;;5.24;100.00;97970.27;106510;1254;61135;-77
2023/02/22 01:35:18;;;;;;;22.80;9.80;;;;;;;5.23;100.00;97964.98;106387;1255;75027;-77
2023/02/22 01:37:45;;;;;;;27.20;8.80;;;;;;;5.21;100.00;97968.11;108452;1254;71576;-78
2023/02/22 01:40:24;;;;;;;21.60;9.50;;;;;;;5.18;100.00;97964.24;106489;1254;71466;-78
2023/02/22 01:42:51;;;;;;;22.60;9.20;;;;;;;5.17;100.00;97965.69;106131;1254;61286;-77
2023/02/22 01:45:47;;;;;;;17.50;8.20;;;;;;;5.13;100.00;97965.20;106175;1254;62197;-77
2023/02/22 01:48:21;;;;;;;25.60;8.70;;;;;;;5.07;100.00;97967.42;107993;1254;74558;-78
2023/02/22 01:50:57;;;;;;;21.80;8.10;;;;;;;5.03;100.00;97963.98;106478;1256;70056;-78
2023/02/22 01:53:46;;;;;;;24.00;7.70;;;;;;;4.99;100.00;97962.52;106394;1254;72901;-76
2023/02/22 01:56:13;;;;;;;34.20;10.90;;;;;;;4.88;100.00;97964.65;106574;1254;61633;-77
2023/02/22 01:58:41;;;;;;;27.00;10.60;;;;;;;4.73;100.00;97965.48;107392;1259;61221;-77
2023/02/22 02:01:07;;;;;;;31.30;10.10;;;;;;;4.73;100.00;97962.42;106538;1254;74053;-77
2023/02/22 02:03:35;;;;;;;22.20;10.10;;;;;;;4.71;100.00;97963.85;106101;1254;61167;-77
2023/02/22 02:06:02;;;;;;;28.50;11.60;;;;;;;4.67;100.00;97960.77;106562;1254;72647;-76
2023/02/22 02:08:34;;;;;;;40.40;16.30;;;;;;;4.63;100.00;97964.51;106788;1257;61365;-78
2023/02/22 02:11:06;;;;;;;67.90;25.40;;;;;;;4.57;100.00;97963.27;106348;1254;61458;-76
2023/02/22 02:13:32;;;;;;;41.00;18.60;;;;;;;4.55;100.00;97960.61;106836;1254;74529;-76
2023/02/22 02:15:59;;;;;;;31.20;15.40;;;;;;;4.54;100.00;97962.37;106510;1254;61345;-76
2023/02/22 02:18:25;;;;;;;32.50;12.90;;;;;;;4.50;100.00;97962.61;108034;1256;71356;-76
2023/02/22 02:21:23;;;;;;;30.90;12.80;;;;;;;4.49;100.00;97961.67;106393;1254;61365;-77
2023/02/22 02:24:10;;;;;;;31.10;12.80;;;;;;;4.43;100.00;97953.48;106705;1254;61148;-77
2023/02/22 02:26:43;;;;;;;22.40;11.80;;;;;;;4.34;100.00;97959.34;106641;1254;73542;-76
2023/02/22 02:29:32;;;;;;;27.50;12.60;;;;;;;4.30;100.00;97960.11;107294;1257;71099;-76
2023/02/22 02:32:04;;;;;;;24.00;12.90;;;;;;;4.26;100.00;97965.20;106348;1254;71737;-77
2023/02/22 02:34:48;;;;;;;26.30;12.20;;;;;;;4.21;100.00;97963.89;106038;1254;61221;-76
2023/02/22 02:37:20;;;;;;;29.20;11.90;;;;;;;4.13;100.00;97960.30;106673;1253;61382;-78
2023/02/22 02:39:52;;;;;;;26.90;12.90;;;;;;;4.07;100.00;97962.69;106049;1254;73498;-76
2023/02/22 02:42:21;;;;;;;34.80;13.50;;;;;;;4.01;100.00;97959.08;106184;1254;69949;-77
2023/02/22 02:44:54;;;;;;;31.40;11.90;;;;;;;3.97;100.00;97956.38;106015;1254;71563;-76
2023/02/22 02:47:24;;;;;;;31.50;11.70;;;;;;;3.91;100.00;97955.56;107989;1254;59215;-77
2023/02/22 02:50:01;;;;;;;31.60;13.90;;;;;;;3.84;100.00;97955.85;106258;1253;61237;-77
2023/02/22 02:52:29;;;;;;;29.90;11.80;;;;;;;3.79;100.00;97957.48;106240;1254;75042;-76
2023/02/22 02:54:55;;;;;;;26.10;12.40;;;;;;;3.75;100.00;97957.60;106198;1254;69887;-76
2023/02/22 02:57:23;;;;;;;28.10;12.70;;;;;;;3.69;100.00;97961.29;107946;1254;61282;-76
2023/02/22 02:59:50;;;;;;;24.00;11.10;;;;;;;3.61;100.00;97960.75;106228;1254;61380;-75
2023/02/22 03:02:26;;;;;;;27.10;12.40;;;;;;;3.56;100.00;97968.56;106016;1254;61349;-76
2023/02/22 03:05:11;;;;;;;28.40;13.60;;;;;;;3.53;100.00;97969.65;106370;1254;73714;-77
2023/02/22 03:08:28;;;;;;;26.10;12.10;;;;;;;3.53;100.00;97967.11;108282;1254;71061;-76
2023/02/22 03:11:13;;;;;;;25.00;11.00;;;;;;;3.51;100.00;97967.73;105864;1264;71432;-77
2023/02/22 03:14:18;;;;;;;31.50;11.40;;;;;;;3.50;100.00;97970.97;105907;1262;61238;-77
2023/02/22 03:16:49;;;;;;;25.50;10.30;;;;;;;3.49;100.00;97972.92;106288;1260;61165;-78
2023/02/22 03:19:21;;;;;;;29.10;11.10;;;;;;;3.51;100.00;97969.66;106258;1265;74603;-79
2023/02/22 03:21:57;;;;;;;27.40;11.90;;;;;;;3.52;100.00;97975.41;106788;1254;71105;-76
2023/02/22 03:24:54;;;;;;;33.00;12.60;;;;;;;3.50;100.00;97975.89;106442;1256;72574;-76
2023/02/22 03:27:31;;;;;;;28.70;12.70;;;;;;;3.48;100.00;97976.66;107833;1254;61253;-77
2023/02/22 03:30:00;;;;;;;28.00;12.00;;;;;;;3.50;100.00;97980.70;106320;1254;62194;-78
2023/02/22 03:32:29;;;;;;;26.40;10.80;;;;;;;3.49;100.00;97982.08;106229;1258;74532;-78
2023/02/22 03:34:57;;;;;;;;;;;;;;;3.45;100.00;97982.91;106217;1254;70034;-77
2023/02/22 03:37:27;;;;;;;17.30;9.90;;;;;;;3.43;100.00;97982.30;108366;1254;72602;-77
2023/02/22 03:39:54;;;;;;;25.90;12.80;;;;;;;3.45;100.00;97982.43;106350;1254;61348;-78
2023/02/22 03:42:24;;;;;;;32.50;14.60;;;;;;;3.46;100.00;97982.56;106749;1257;61264;-78
2023/02/22 03:44:50;;;;;;;24.20;11.80;;;;;;;3.46;100.00;97986.41;106412;1256;74533;-76
2023/02/22 03:47:20;;;;;;;40.40;12.90;;;;;;;3.48;100.00;97986.98;107762;1254;71031;-77
2023/02/22 03:50:14;;;;;;;27.30;10.80;;;;;;;3.48;100.00;97991.33;106397;1257;72565;-77
2023/02/22 03:52:41;;;;;;;24.30;11.20;;;;;;;3.49;100.00;97985.99;106466;1257;61251;-79
2023/02/22 03:55:10;;;;;;;26.70;10.80;;;;;;;3.50;100.00;97988.58;106165;1257;61116;-77
2023/02/22 03:57:41;;;;;;;24.30;11.10;;;;;;;3.49;100.00;97987.55;107824;1254;73721;-76
2023/02/22 04:00:09;;;;;;;23.80;10.90;;;;;;;3.46;100.00;97990.92;106276;1254;70893;-77
2023/02/22 04:02:35;;;;;;;20.70;9.50;;;;;;;3.47;100.00;97996.35;106135;1259;72671;-77
2023/02/22 04:05:02;;;;;;;20.80;9.90;;;;;;;3.47;100.00;97994.26;106040;1257;61295;-77
2023/02/22 04:07:28;;;;;;;18.80;10.30;;;;;;;3.43;100.00;97995.15;107577;1254;61089;-77
2023/02/22 04:09:55;;;;;;;29.10;15.20;;;;;;;3.38;100.00;97994.28;106240;1254;61231;-77
2023/02/22 04:12:21;;;;;;;28.70;11.60;;;;;;;3.35;100.00;97998.84;106260;1254;62300;-78
2023/02/22 04:14:48;;;;;;;24.50;11.60;;;;;;;3.36;100.00;97990.01;106060;1254;61337;-78
2023/02/22 04:17:14;;;;;;;30.70;15.10;;;;;;;3.37;100.00;97990.77;108010;1254;61189;-77
2023/02/22 04:19:42;;;;;;;30.10;11.80;;;;;;;3.37;100.00;97992.87;106610;1254;61266;-77
2023/02/22 04:22:08;;;;;;;27.60;11.90;;;;;;;3.36;100.00;97984.48;106632;1254;73371;-77
2023/02/22 04:24:35;;;;;;;29.60;11.70;;;;;;;3.31;100.00;97990.25;106572;1254;61176;-78
2023/02/22 04:27:02;;;;;;;28.90;12.90;;;;;;;3.26;100.00;97990.11;107540;1254;61244;-77
2023/02/22 04:29:29;;;;;;;40.10;15.00;;;;;;;3.27;100.00;97996.77;106805;1254;61336;-76
2023/02/22 04:31:55;;;;;;;34.00;14.40;;;;;;;3.28;100.00;98002.09;106193;1254;61310;-78
2023/02/22 04:34:22;;;;;;;30.80;13.90;;;;;;;3.29;100.00;98003.73;106218;1254;61230;-76
2023/02/22 04:36:48;;;;;;;30.60;14.40;;;;;;;3.31;100.00;98006.86;106998;1254;70022;-78
2023/02/22 04:39:15;;;;;;;32.80;12.10;;;;;;;3.32;100.00;98007.82;106881;1254;72746;-77
2023/02/22 04:41:41;;;;;;;24.40;12.00;;;;;;;3.36;100.00;98003.84;106059;1254;61444;-76
2023/02/22 04:44:08;;;;;;;21.70;9.70;;;;;;;3.35;100.00;98002.84;106464;1254;61318;-76
2023/02/22 04:46:34;;;;;;;32.40;11.70;;;;;;;3.33;100.00;98002.90;107247;1254;61125;-78
2023/02/22 04:49:01;;;;;;;29.20;10.40;;;;;;;3.33;100.00;97996.06;106766;1255;60896;-76
2023/02/22 04:51:27;;;;;;;27.40;11.00;;;;;;;3.36;100.00;97997.25;106076;1254;61824;-77
2023/02/22 04:53:53;;;;;;;28.50;9.90;;;;;;;3.34;100.00;98005.83;106082;1254;61339;-78
2023/02/22 04:56:20;;;;;;;24.20;11.50;;;;;;;3.34;100.00;98004.96;106836;1254;61148;-76
2023/02/22 04:58:46;;;;;;;29.40;11.60;;;;;;;3.34;100.00;98003.10;107886;1254;61359;-77
2023/02/22 05:01:14;;;;;;;32.10;13.10;;;;;;;3.32;100.00;98003.29;106312;1254;62302;-78
2023/02/22 05:03:41;;;;;;;29.50;12.70;;;;;;;3.32;100.00;98004.44;106094;1254;71437;-77
2023/02/22 05:06:07;;;;;;;34.80;16.50;;;;;;;3.35;100.00;98008.80;106301;1254;61246;-78
2023/02/22 05:08:34;;;;;;;51.70;34.00;;;;;;;3.34;100.00;98009.16;108004;1254;59540;-77
2023/02/22 05:11:01;;;;;;;49.20;24.10;;;;;;;3.34;100.00;98004.55;106274;1254;73554;-76
2023/02/22 05:13:27;;;;;;;27.20;14.90;;;;;;;3.36;100.00;98001.46;106091;1254;61359;-77
2023/02/22 05:15:55;;;;;;;27.00;12.70;;;;;;;3.34;100.00;98003.31;106198;1254;61340;-78
2023/02/22 05:18:21;;;;;;;27.20;14.70;;;;;;;3.34;100.00;98007.85;108279;1256;59195;-76
2023/02/22 05:20:48;;;;;;;42.30;16.70;;;;;;;3.34;100.00;98009.52;106518;1254;62515;-76
2023/02/22 05:23:14;;;;;;;25.90;12.20;;;;;;;3.35;100.00;98003.16;106652;1259;61161;-77
2023/02/22 05:25:41;;;;;;;36.20;14.70;;;;;;;3.35;100.00;98005.31;106399;1254;61340;-78
2023/02/22 05:28:11;;;;;;;34.20;14.50;;;;;;;3.38;100.00;98008.47;107791;1254;61343;-78
2023/02/22 05:30:41;;;;;;;25.00;12.70;;;;;;;3.40;100.00;98009.48;106302;1254;61252;-76
2023/02/22 05:33:07;;;;;;;32.80;13.20;;;;;;;3.43;100.00;98010.09;106451;1254;61228;-78
2023/02/22 05:35:35;;;;;;;24.00;12.50;;;;;;;3.43;100.00;98006.29;106679;1258;73012;-78
2023/02/22 05:38:03;;;;;;;23.80;13.30;;;;;;;3.42;100.00;98007.88;107420;1254;70529;-77
2023/02/22 05:40:29;;;;;;;34.70;15.00;;;;;;;3.39;100.00;98008.40;107207;1254;72571;-78
2023/02/22 05:42:56;;;;;;;39.00;15.80;;;;;;;3.38;100.00;98009.16;106339;1254;61280;-78
2023/02/22 05:45:24;;;;;;;46.50;18.30;;;;;;;3.38;100.00;98008.21;106322;1256;61109;-76
2023/02/22 05:47:51;;;;;;;25.90;14.40;;;;;;;3.38;100.00;98012.55;107900;1254;74481;-76
2023/02/22 05:50:18;;;;;;;45.70;19.30;;;;;;;3.36;100.00;98021.20;106070;1255;70020;-76
2023/02/22 05:52:47;;;;;;;38.10;20.40;;;;;;;3.38;100.00;98023.10;106131;1254;73935;-79
2023/02/22 05:55:14;;;;;;;42.80;20.90;;;;;;;3.38;100.00;98023.33;106524;1256;61278;-77
2023/02/22 05:57:41;;;;;;;32.40;18.50;;;;;;;3.39;100.00;98029.12;107246;1254;61286;-77
2023/02/22 06:00:08;;;;;;;34.70;18.10;;;;;;;3.40;100.00;98030.10;106124;1256;75479;-76
2023/02/22 06:02:35;;;;;;;43.70;20.70;;;;;;;3.39;100.00;98030.20;106249;1254;69990;-75
2023/02/22 06:05:02;;;;;;;44.20;22.40;;;;;;;3.41;100.00;98031.19;105989;1257;61435;-77
2023/02/22 06:07:28;;;;;;;50.60;20.70;;;;;;;3.43;100.00;98033.73;108348;1254;61215;-78
2023/02/22 06:09:55;;;;;;;36.50;18.80;;;;;;;3.45;100.00;98033.77;106217;1258;60649;-76
2023/02/22 06:12:21;;;;;;;37.40;18.20;;;;;;;3.47;100.00;98041.77;106401;1254;62371;-77
2023/02/22 06:14:47;;;;;;;39.50;18.00;;;;;;;3.46;100.00;98041.23;106135;1254;61330;-77
2023/02/22 06:17:14;;;;;;;43.70;19.70;;;;;;;3.45;100.00;98048.08;106479;1254;59320;-76
2023/02/22 06:19:40;;;;;;;38.90;21.50;;;;;;;3.43;100.00;98053.05;106351;1254;61263;-78
2023/02/22 06:22:07;;;;;;;40.70;21.70;;;;;;;3.41;100.00;98054.73;106327;1254;61355;-78
2023/02/22 06:24:33;;;;;;;41.10;17.90;;;;;;;3.44;100.00;98055.65;106292;1255;61394;-77
2023/02/22 06:27:00;;;;;;;34.80;17.30;;;;;;;3.47;100.00;98055.34;107328;1254;61478;-78
2023/02/22 06:29:27;;;;;;;50.50;19.30;;;;;;;3.45;100.00;98056.64;106739;1254;72540;-77
2023/02/22 06:31:54;;;;;;;43.10;18.50;;;;;;;3.46;100.00;98059.34;106651;1254;61342;-77
2023/02/22 06:34:21;;;;;;;48.30;19.50;;;;;;;3.50;100.00;98059.36;106392;1254;61132;-76
2023/02/22 06:36:47;;;;;;;49.80;23.20;;;;;;;3.52;100.00;98058.96;106851;1254;61093;-78
2023/02/22 06:39:14;;;;;;;37.10;20.10;;;;;;;3.58;100.00;98058.46;107033;1254;69281;-78
2023/02/22 06:41:41;;;;;;;50.00;21.80;;;;;;;3.59;100.00;98060.64;106136;1259;71488;-78
2023/02/22 06:44:09;;;;;;;49.10;23.20;;;;;;;3.59;100.00;98064.84;106112;1254;62321;-76
2023/02/22 06:46:36;;;;;;;40.50;20.90;;;;;;;3.63;100.00;98069.59;107375;1254;59195;-78
2023/02/22 06:49:03;;;;;;;68.50;28.70;;;;;;;3.66;100.00;98066.12;107260;1255;73353;-78
2023/02/22 06:51:30;;;;;;;89.90;39.10;;;;;;;3.70;100.00;98072.81;106386;1254;69925;-77
2023/02/22 06:53:56;;;;;;;82.60;35.90;;;;;;;3.74;100.00;98071.00;106227;1259;71735;-77
2023/02/22 06:56:23;;;;;;;85.80;37.30;;;;;;;3.76;100.00;98077.86;106808;1254;61236;-78
2023/02/22 06:58:49;;;;;;;68.00;31.10;;;;;;;3.79;100.00;98083.08;107049;1253;61359;-77
2023/02/22 07:01:15;;;;;;;64.60;33.10;;;;;;;3.83;100.00;98082.84;106262;1254;62060;-78
2023/02/22 07:03:42;;;;;;;81.50;48.00;;;;;;;3.88;100.00;98082.20;106247;1254;61263;-77
2023/02/22 07:06:09;;;;;;;80.60;42.30;;;;;;;3.93;100.00;98084.05;106717;1254;61262;-78
2023/02/22 07:08:36;;;;;;;59.30;31.10;;;;;;;3.99;100.00;98087.36;107375;1255;61211;-77
2023/02/22 07:11:02;;;;;;;69.30;29.60;;;;;;;4.03;100.00;98089.55;106158;1254;59657;-76
2023/02/22 07:13:29;;;;;;;64.10;30.40;;;;;;;4.08;100.00;98091.73;106061;1259;61263;-76
2023/02/22 07:15:55;;;;;;;56.30;29.20;;;;;;;4.15;100.00;98094.79;106324;1254;61419;-76
2023/02/22 07:18:23;;;;;;;65.40;32.80;;;;;;;4.23;100.00;98091.31;108137;1257;72534;-77
2023/02/22 07:20:49;;;;;;;70.80;35.50;;;;;;;4.30;100.00;98093.02;106310;1254;61272;-78
2023/02/22 07:23:16;;;;;;;72.30;31.80;;;;;;;4.33;100.00;98093.70;106196;1254;61352;-78
2023/02/22 07:25:42;;;;;;;57.80;28.60;;;;;;;4.39;100.00;98094.64;106916;1254;74517;-76
2023/02/22 07:28:09;;;;;;;56.30;28.60;;;;;;;4.43;100.00;98098.91;107941;1256;72216;-78
2023/02/22 07:30:36;;;;;;;221.60;123.30;;;;;;;4.49;100.00;98094.30;106630;1258;72616;-78
2023/02/22 07:33:05;;;;;;;102.00;56.30;;;;;;;4.49;100.00;98097.21;106131;1254;61309;-77
2023/02/22 07:35:42;;;;;;;136.60;68.30;;;;;;;4.53;100.00;98093.91;106133;1257;61123;-77
2023/02/22 07:38:09;;;;;;;64.30;31.10;;;;;;;4.61;100.00;98090.52;107828;1254;74509;-78
2023/02/22 07:40:36;;;;;;;66.20;30.60;;;;;;;4.66;100.00;98091.20;106600;1254;61202;-78
2023/02/22 07:43:15;;;;;;;62.30;32.20;;;;;;;4.69;100.00;98091.18;106253;1259;72016;-78
2023/02/22 07:45:42;;;;;;;69.40;34.50;;;;;;;4.71;100.00;98087.86;106202;1254;61336;-78
2023/02/22 07:48:11;;;;;;;55.40;28.40;;;;;;;4.78;100.00;98086.44;109146;1254;59441;-77
2023/02/22 07:50:38;;;;;;;54.00;30.50;;;;;;;4.84;100.00;98087.50;108723;1254;74609;-75
2023/02/22 07:53:09;;;;;;;48.70;29.20;;;;;;;4.91;100.00;98088.50;108935;1254;71107;-77
2023/02/22 07:55:36;;;;;;;75.50;33.50;;;;;;;4.98;100.00;98088.08;109211;1254;72508;-76
2023/02/22 07:58:05;;;;;;;68.70;35.20;;;;;;;5.07;100.00;98090.33;108852;1254;59705;-77
2023/02/22 08:00:33;;;;;;;;;;;;;;;5.12;100.00;98096.36;106215;1256;61155;-76
2023/02/22 08:03:02;;;;;;;109.50;52.30;;;;;;;5.19;100.00;98094.77;107030;1258;74591;-76
2023/02/22 08:05:30;;;;;;;163.70;74.70;;;;;;;5.29;100.00;98092.53;106197;1259;71079;-75
2023/02/22 08:07:56;;;;;;;180.20;91.30;;;;;;;5.32;100.00;98092.21;108431;1254;71418;-76
2023/02/22 08:10:24;;;;;;;192.50;88.80;;;;;;;5.35;100.00;98093.00;106322;1254;61215;-76
2023/02/22 08:12:51;;;;;;;108.90;56.00;;;;;;;5.46;100.00;98091.03;106266;1259;60710;-76
2023/02/22 08:15:19;;;;;;;62.90;32.90;;;;;;;5.57;100.00;98091.64;107031;1254;75309;-76
2023/02/22 08:17:46;;;;;;;77.30;47.30;;;;;;;5.58;100.00;98093.91;108940;1254;71143;-78
2023/02/22 08:20:12;;;;;;;83.70;43.40;;;;;;;5.61;100.00;98092.97;106910;1254;73112;-78
2023/02/22 08:22:42;;;;;;;105.70;51.60;;;;;;;5.74;100.00;98093.43;106530;1258;61264;-77
2023/02/22 08:25:09;;;;;;;98.20;56.30;;;;;;;5.89;100.00;98090.71;106252;1254;61203;-77
2023/02/22 08:27:35;;;;;;;74.50;45.20;;;;;;;6.06;100.00;98091.94;108170;1254;74769;-78
2023/02/22 08:30:02;;;;;;;67.30;37.90;;;;;;;6.18;100.00;98093.06;106949;1258;69886;-76
2023/02/22 08:32:29;;;;;;;81.40;43.70;;;;;;;6.27;100.00;98094.04;106417;1254;71604;-77
2023/02/22 08:34:55;;;;;;;66.80;36.20;;;;;;;6.33;100.00;98095.89;106548;1254;61167;-76
2023/02/22 08:37:22;;;;;;;76.50;35.40;;;;;;;6.38;100.00;98095.90;107882;1254;61270;-76
2023/02/22 08:39:48;;;;;;;89.10;49.10;;;;;;;6.39;100.00;98094.98;108273;1254;61147;-77
2023/02/22 08:42:15;;;;;;;67.30;34.10;;;;;;;6.35;100.00;98096.73;106416;1254;61339;-76
2023/02/22 08:44:41;;;;;;;57.50;29.80;;;;;;;6.39;100.00;98098.42;106505;1259;61409;-76
2023/02/22 08:47:07;;;;;;;57.60;28.70;;;;;;;6.37;100.00;98099.00;106622;1254;61377;-76
2023/02/22 08:49:34;;;;;;;44.70;18.00;;;;;;;6.36;100.00;98100.45;108446;1254;61362;-78
2023/02/22 08:52:01;;;;;;;31.50;13.50;;;;;;;6.31;100.00;98102.48;108556;1254;59389;-77
2023/02/22 08:54:27;;;;;;;31.80;10.90;;;;;;;6.15;98.39;98105.19;109242;1254;59970;-78
2023/02/22 08:56:54;;;;;;;28.40;10.20;;;;;;;6.11;98.14;98100.17;108956;1254;59231;-77
2023/02/22 08:59:21;;;;;;;27.30;10.70;;;;;;;6.14;99.36;98099.58;107600;1254;61231;-77
2023/02/22 09:01:47;;;;;;;20.70;7.50;;;;;;;6.13;98.37;98101.19;106644;1254;61154;-77
2023/02/22 09:04:14;;;;;;;24.80;9.20;;;;;;;6.11;97.59;98095.93;106373;1254;73670;-77
2023/02/22 09:06:41;;;;;;;27.70;10.90;;;;;;;6.17;97.28;98098.82;107433;1254;61119;-76
2023/02/22 09:09:08;;;;;;;25.30;8.80;;;;;;;6.27;97.58;98099.75;107621;1257;72466;-78
2023/02/22 09:11:34;;;;;;;22.90;8.70;;;;;;;6.40;97.25;98102.59;106976;1258;61336;-77
2023/02/22 09:14:01;;;;;;;26.30;11.70;;;;;;;6.61;96.80;98101.61;106558;1254;61221;-76
2023/02/22 09:16:28;;;;;;;30.70;10.30;;;;;;;6.74;94.64;98102.52;107063;1254;59212;-78
2023/02/22 09:18:54;;;;;;;21.40;8.40;;;;;;;6.72;91.95;98101.90;107685;1254;71018;-78
2023/02/22 09:21:21;;;;;;;25.70;8.00;;;;;;;6.69;91.01;98103.91;106534;1254;72557;-76
2023/02/22 09:23:47;;;;;;;27.30;9.30;;;;;;;6.79;92.89;98096.20;106238;1256;61311;-76
2023/02/22 09:26:16;;;;;;;21.70;7.60;;;;;;;6.93;94.40;98099.27;107082;1254;59264;-77
2023/02/22 09:28:43;;;;;;;;;;;;;;;6.98;92.96;98098.93;108049;1258;74571;-76
2023/02/22 09:31:09;;;;;;;17.20;7.60;;;;;;;7.04;94.98;98094.73;106236;1254;61328;-76
2023/02/22 09:33:36;;;;;;;23.70;8.00;;;;;;;7.12;96.87;98095.77;106126;1254;61399;-77
2023/02/22 09:36:02;;;;;;;22.40;7.60;;;;;;;7.19;98.01;98094.66;106644;1254;61085;-78
2023/02/22 09:38:29;;;;;;;21.50;6.40;;;;;;;7.26;91.78;98101.51;107785;1254;61343;-77
2023/02/22 09:41:12;;;;;;;15.30;3.70;;;;;;;7.26;84.50;98102.00;106191;1253;74049;-78
2023/02/22 09:43:52;;;;;;;12.70;3.90;;;;;;;7.46;87.48;98095.60;107203;1254;70949;-78
2023/02/22 09:46:29;;;;;;;39.80;14.90;;;;;;;7.49;81.68;98100.41;107010;1259;72506;-77
2023/02/22 09:49:21;;;;;;;16.20;4.20;;;;;;;7.57;81.84;98100.86;107058;1254;61121;-77
2023/02/22 09:51:55;;;;;;;16.70;6.00;;;;;;;7.51;81.10;98097.14;106056;1254;61234;-77
2023/02/22 09:54:25;;;;;;;17.00;4.80;;;;;;;7.68;84.25;98102.45;106380;1254;74476;-78
2023/02/22 09:56:55;;;;;;;17.20;5.40;;;;;;;7.74;85.96;98105.19;107365;1254;70919;-78
2023/02/22 09:59:26;;;;;;;19.50;5.60;;;;;;;7.58;82.44;98104.98;106677;1254;72366;-76
2023/02/22 10:01:57;;;;;;;16.00;4.50;;;;;;;7.35;82.32;98107.35;106748;1255;61301;-78
2023/02/22 10:04:41;;;;;;;16.90;5.30;;;;;;;7.37;83.95;98103.81;106319;1254;61304;-76
2023/02/22 10:07:19;;;;;;;20.80;6.30;;;;;;;7.42;83.64;98099.55;107665;1254;73488;-77
2023/02/22 10:09:47;;;;;;;18.10;6.70;;;;;;;7.48;84.40;98096.80;106439;1259;70222;-78
2023/02/22 10:12:16;;;;;;;19.20;8.10;;;;;;;7.50;83.09;98093.68;106241;1254;72598;-76
2023/02/22 10:14:42;;;;;;;;;;;;;;;7.57;83.17;98094.50;106513;1254;61317;-77
2023/02/22 10:17:16;;;;;;;22.30;8.70;;;;;;;7.67;85.41;98088.90;107194;1255;61141;-78
2023/02/22 10:19:42;;;;;;;25.60;10.70;;;;;;;7.77;83.97;98088.16;106687;1258;74633;-77
2023/02/22 10:22:18;;;;;;;20.70;9.10;;;;;;;7.78;83.73;98086.98;106516;1257;71022;-78
2023/02/22 10:25:06;;;;;;;18.50;6.70;;;;;;;7.86;83.63;98084.77;106177;1254;71886;-76
2023/02/22 10:27:41;;;;;;;18.80;7.40;;;;;;;7.76;81.45;98086.80;108499;1254;59613;-77
2023/02/22 10:30:31;;;;;;;23.20;8.30;;;;;;;7.74;82.47;98086.73;106751;1254;61218;-77
2023/02/22 10:32:59;;;;;;;25.60;6.70;;;;;;;7.66;82.96;98082.48;106300;1255;73767;-79
2023/02/22 10:35:27;;;;;;;24.20;7.40;;;;;;;7.73;84.44;98085.70;106366;1256;70058;-77
2023/02/22 10:37:57;;;;;;;18.90;7.50;;;;;;;7.70;82.47;98083.30;107831;1259;72588;-77
2023/02/22 10:40:30;;;;;;;25.30;8.30;;;;;;;7.69;82.68;98083.38;107307;1255;61234;-78
2023/02/22 10:43:03;;;;;;;21.20;6.70;;;;;;;7.71;83.48;98082.08;106772;1259;61227;-78
2023/02/22 10:45:34;;;;;;;23.80;6.80;;;;;;;7.67;84.15;98076.55;106576;1255;75516;-78
2023/02/22 10:48:10;;;;;;;14.30;6.60;;;;;;;7.58;81.48;98075.46;108729;1259;70738;-78
2023/02/22 10:50:41;;;;;;;15.00;6.20;;;;;;;7.65;83.84;98072.70;106264;1260;72184;-77
2023/02/22 10:53:08;;;;;;;25.20;9.10;;;;;;;7.64;82.94;98068.55;106363;1257;61311;-76
2023/02/22 10:55:35;;;;;;;19.70;8.10;;;;;;;7.61;83.01;98066.48;106431;1258;61225;-78
2023/02/22 10:58:04;;;;;;;24.00;7.30;;;;;;;7.72;85.59;98066.23;108665;1258;75607;-78
2023/02/22 11:00:38;;;;;;;40.00;20.60;;;;;;;7.82;86.16;98066.20;107275;1254;69453;-77
2023/02/22 11:03:15;;;;;;;30.20;10.70;;;;;;;7.88;82.65;98063.29;107719;1254;71702;-76
2023/02/22 11:05:42;;;;;;;22.50;5.90;;;;;;;7.84;81.65;98065.28;106358;1254;61321;-76
2023/02/22 11:08:20;;;;;;;15.50;5.70;;;;;;;7.84;79.67;98063.17;108186;1254;59286;-78
2023/02/22 11:10:48;;;;;;;18.30;5.40;;;;;;;8.01;81.75;98061.33;106189;1254;74582;-76
2023/02/22 11:13:29;;;;;;;20.70;6.90;;;;;;;8.00;79.76;98060.67;106195;1254;70958;-77
2023/02/22 11:15:59;;;;;;;25.40;8.90;;;;;;;8.07;80.42;98056.23;106772;1254;72575;-77
2023/02/22 11:18:32;;;;;;;;;;;;;;;8.02;80.00;98060.64;108370;1259;59263;-78
2023/02/22 11:21:03;;;;;;;20.30;6.40;;;;;;;8.02;79.82;98057.45;106666;1254;61157;-76
2023/02/22 11:23:29;;;;;;;16.40;6.10;;;;;;;8.01;78.96;98056.36;106129;1254;74751;-76
2023/02/22 11:26:13;;;;;;;19.90;6.00;;;;;;;8.01;78.58;98055.12;106635;1254;61257;-77